sensor_id;sensor_type;location;lat;lon;timestamp;P1;durP1;ratioP1;P2;durP2;ratioP2
52126;SDS011;38120;53.176;6.614;2022-09-02T00:00:50;3.30;;;1.70;;
52126;SDS011;38120;53.176;6.614;2022-09-02T00:03:18;2.55;;;1.55;;
52126;SDS011;38120;53.176;6.614;2022-09-02T00:05:44;3.25;;;1.35;;
52126;SDS011;38120;53.176;6.614;2022-09-02T00:10:38;3.17;;;1.80;;
52126;SDS011;38120;53.176;6.614;2022-09-02T00:13:06;3.03;;;1.58;;
52126;SDS011;38120;53.176;6.614;2022-09-02T00:15:32;2.63;;;1.50;;
52126;SDS011;38120;53.176;6.614;2022-09-02T00:17:58;2.35;;;1.40;;
52126;SDS011;38120;53.176;6.614;2022-09-02T00:20:26;3.33;;;1.75;;
52126;SDS011;38120;53.176;6.614;2022-09-02T00:22:52;3.53;;;1.95;;
52126;SDS011;38120;53.176;6.614;2022-09-02T00:25:18;4.15;;;2.05;;
52126;SDS011;38120;53.176;6.614;2022-09-02T00:27:44;3.55;;;1.33;;
52126;SDS011;38120;53.176;6.614;2022-09-02T00:30:10;4.25;;;1.85;;
52126;SDS011;38120;53.176;6.614;2022-09-02T00:32:37;3.90;;;1.70;;
52126;SDS011;38120;53.176;6.614;2022-09-02T00:35:03;4.00;;;1.77;;
52126;SDS011;38120;53.176;6.614;2022-09-02T00:37:29;3.78;;;1.48;;
52126;SDS011;38120;53.176;6.614;2022-09-02T00:39:55;2.90;;;1.38;;
52126;SDS011;38120;53.176;6.614;2022-09-02T00:42:22;3.55;;;1.55;;
52126;SDS011;38120;53.176;6.614;2022-09-02T00:44:48;3.08;;;1.58;;
52126;SDS011;38120;53.176;6.614;2022-09-02T00:47:14;2.78;;;1.45;;
52126;SDS011;38120;53.176;6.614;2022-09-02T00:49:42;2.85;;;1.45;;
52126;SDS011;38120;53.176;6.614;2022-09-02T00:52:22;2.95;;;1.30;;
52126;SDS011;38120;53.176;6.614;2022-09-02T00:57:50;3.17;;;1.50;;
52126;SDS011;38120;53.176;6.614;2022-09-02T01:00:24;3.83;;;1.40;;
52126;SDS011;38120;53.176;6.614;2022-09-02T01:02:53;4.10;;;1.33;;
52126;SDS011;38120;53.176;6.614;2022-09-02T01:05:23;3.25;;;1.67;;
52126;SDS011;38120;53.176;6.614;2022-09-02T01:07:53;3.53;;;1.70;;
52126;SDS011;38120;53.176;6.614;2022-09-02T01:10:21;3.60;;;1.30;;
52126;SDS011;38120;53.176;6.614;2022-09-02T01:12:53;3.47;;;1.73;;
52126;SDS011;38120;53.176;6.614;2022-09-02T01:15:24;3.03;;;1.42;;
52126;SDS011;38120;53.176;6.614;2022-09-02T01:20:21;2.80;;;1.63;;
52126;SDS011;38120;53.176;6.614;2022-09-02T01:22:50;4.65;;;1.40;;
52126;SDS011;38120;53.176;6.614;2022-09-02T01:25:18;4.13;;;1.80;;
52126;SDS011;38120;53.176;6.614;2022-09-02T01:27:46;4.65;;;1.80;;
52126;SDS011;38120;53.176;6.614;2022-09-02T01:30:13;2.92;;;1.88;;
52126;SDS011;38120;53.176;6.614;2022-09-02T01:32:41;4.38;;;2.00;;
52126;SDS011;38120;53.176;6.614;2022-09-02T01:35:07;2.85;;;1.95;;
52126;SDS011;38120;53.176;6.614;2022-09-02T01:37:33;3.08;;;1.73;;
52126;SDS011;38120;53.176;6.614;2022-09-02T01:39:58;2.88;;;1.75;;
52126;SDS011;38120;53.176;6.614;2022-09-02T01:42:25;2.60;;;1.60;;
52126;SDS011;38120;53.176;6.614;2022-09-02T01:44:51;3.38;;;2.10;;
52126;SDS011;38120;53.176;6.614;2022-09-02T01:47:17;4.00;;;1.90;;
52126;SDS011;38120;53.176;6.614;2022-09-02T01:49:45;3.67;;;2.08;;
52126;SDS011;38120;53.176;6.614;2022-09-02T01:52:12;4.50;;;2.10;;
52126;SDS011;38120;53.176;6.614;2022-09-02T01:54:38;5.07;;;2.20;;
52126;SDS011;38120;53.176;6.614;2022-09-02T01:57:04;3.92;;;2.28;;
52126;SDS011;38120;53.176;6.614;2022-09-02T01:59:30;4.28;;;1.90;;
52126;SDS011;38120;53.176;6.614;2022-09-02T02:01:56;6.90;;;2.25;;
52126;SDS011;38120;53.176;6.614;2022-09-02T02:04:22;3.55;;;1.63;;
52126;SDS011;38120;53.176;6.614;2022-09-02T02:06:49;3.58;;;1.40;;
52126;SDS011;38120;53.176;6.614;2022-09-02T02:09:16;6.03;;;2.33;;
52126;SDS011;38120;53.176;6.614;2022-09-02T02:14:09;3.35;;;1.52;;
52126;SDS011;38120;53.176;6.614;2022-09-02T02:19:01;6.93;;;2.15;;
52126;SDS011;38120;53.176;6.614;2022-09-02T02:21:29;2.28;;;1.52;;
52126;SDS011;38120;53.176;6.614;2022-09-02T02:26:21;3.22;;;1.70;;
52126;SDS011;38120;53.176;6.614;2022-09-02T02:28:46;2.97;;;2.00;;
52126;SDS011;38120;53.176;6.614;2022-09-02T02:31:12;4.20;;;1.60;;
52126;SDS011;38120;53.176;6.614;2022-09-02T02:33:38;2.55;;;1.50;;
52126;SDS011;38120;53.176;6.614;2022-09-02T02:36:04;2.40;;;1.43;;
52126;SDS011;38120;53.176;6.614;2022-09-02T02:38:32;4.22;;;1.83;;
52126;SDS011;38120;53.176;6.614;2022-09-02T02:41:02;2.80;;;1.90;;
52126;SDS011;38120;53.176;6.614;2022-09-02T02:43:30;3.47;;;1.70;;
52126;SDS011;38120;53.176;6.614;2022-09-02T02:45:57;2.10;;;1.40;;
52126;SDS011;38120;53.176;6.614;2022-09-02T02:48:23;2.25;;;1.42;;
52126;SDS011;38120;53.176;6.614;2022-09-02T02:50:49;2.83;;;1.75;;
52126;SDS011;38120;53.176;6.614;2022-09-02T02:53:14;3.20;;;1.80;;
52126;SDS011;38120;53.176;6.614;2022-09-02T02:58:07;3.75;;;2.08;;
52126;SDS011;38120;53.176;6.614;2022-09-02T03:00:33;2.60;;;1.60;;
52126;SDS011;38120;53.176;6.614;2022-09-02T03:03:08;3.20;;;1.60;;
52126;SDS011;38120;53.176;6.614;2022-09-02T03:05:36;3.92;;;2.00;;
52126;SDS011;38120;53.176;6.614;2022-09-02T03:08:04;2.88;;;1.42;;
52126;SDS011;38120;53.176;6.614;2022-09-02T03:10:31;2.63;;;1.70;;
52126;SDS011;38120;53.176;6.614;2022-09-02T03:15:24;4.07;;;1.73;;
52126;SDS011;38120;53.176;6.614;2022-09-02T03:17:51;4.45;;;1.85;;
52126;SDS011;38120;53.176;6.614;2022-09-02T03:20:18;3.78;;;2.13;;
52126;SDS011;38120;53.176;6.614;2022-09-02T03:22:44;4.03;;;2.10;;
52126;SDS011;38120;53.176;6.614;2022-09-02T03:25:12;3.47;;;1.90;;
52126;SDS011;38120;53.176;6.614;2022-09-02T03:27:40;3.55;;;1.92;;
52126;SDS011;38120;53.176;6.614;2022-09-02T03:30:10;2.65;;;1.55;;
52126;SDS011;38120;53.176;6.614;2022-09-02T03:32:38;2.92;;;1.90;;
52126;SDS011;38120;53.176;6.614;2022-09-02T03:35:05;4.17;;;2.20;;
52126;SDS011;38120;53.176;6.614;2022-09-02T03:37:33;4.63;;;2.00;;
52126;SDS011;38120;53.176;6.614;2022-09-02T03:40:07;2.92;;;1.90;;
52126;SDS011;38120;53.176;6.614;2022-09-02T03:42:35;3.80;;;2.28;;
52126;SDS011;38120;53.176;6.614;2022-09-02T03:45:01;8.63;;;2.08;;
52126;SDS011;38120;53.176;6.614;2022-09-02T03:47:27;3.10;;;1.92;;
52126;SDS011;38120;53.176;6.614;2022-09-02T03:49:54;6.18;;;2.13;;
52126;SDS011;38120;53.176;6.614;2022-09-02T03:52:20;3.75;;;2.10;;
52126;SDS011;38120;53.176;6.614;2022-09-02T03:54:45;5.53;;;2.08;;
52126;SDS011;38120;53.176;6.614;2022-09-02T03:57:11;3.10;;;1.75;;
52126;SDS011;38120;53.176;6.614;2022-09-02T03:59:37;5.03;;;2.00;;
52126;SDS011;38120;53.176;6.614;2022-09-02T04:02:03;3.20;;;2.13;;
52126;SDS011;38120;53.176;6.614;2022-09-02T04:04:30;3.95;;;2.40;;
52126;SDS011;38120;53.176;6.614;2022-09-02T04:06:56;3.35;;;2.20;;
52126;SDS011;38120;53.176;6.614;2022-09-02T04:09:22;2.67;;;1.90;;
52126;SDS011;38120;53.176;6.614;2022-09-02T04:11:48;4.90;;;1.83;;
52126;SDS011;38120;53.176;6.614;2022-09-02T04:14:13;4.72;;;2.08;;
52126;SDS011;38120;53.176;6.614;2022-09-02T04:16:39;3.27;;;1.90;;
52126;SDS011;38120;53.176;6.614;2022-09-02T04:19:05;3.30;;;2.10;;
52126;SDS011;38120;53.176;6.614;2022-09-02T04:21:34;3.83;;;2.00;;
52126;SDS011;38120;53.176;6.614;2022-09-02T04:24:01;3.65;;;1.85;;
52126;SDS011;38120;53.176;6.614;2022-09-02T04:26:28;3.50;;;2.20;;
52126;SDS011;38120;53.176;6.614;2022-09-02T04:28:54;7.88;;;2.20;;
52126;SDS011;38120;53.176;6.614;2022-09-02T04:31:20;3.50;;;2.17;;
52126;SDS011;38120;53.176;6.614;2022-09-02T04:33:49;3.67;;;2.03;;
52126;SDS011;38120;53.176;6.614;2022-09-02T04:36:15;5.45;;;1.98;;
52126;SDS011;38120;53.176;6.614;2022-09-02T04:38:42;3.53;;;2.08;;
52126;SDS011;38120;53.176;6.614;2022-09-02T04:41:10;4.60;;;2.65;;
52126;SDS011;38120;53.176;6.614;2022-09-02T04:43:47;3.55;;;2.05;;
52126;SDS011;38120;53.176;6.614;2022-09-02T04:46:14;4.32;;;2.22;;
52126;SDS011;38120;53.176;6.614;2022-09-02T04:48:41;3.80;;;2.28;;
52126;SDS011;38120;53.176;6.614;2022-09-02T04:51:09;4.50;;;2.50;;
52126;SDS011;38120;53.176;6.614;2022-09-02T04:53:46;3.60;;;1.98;;
52126;SDS011;38120;53.176;6.614;2022-09-02T04:56:15;4.47;;;2.40;;
52126;SDS011;38120;53.176;6.614;2022-09-02T04:58:43;5.85;;;2.30;;
52126;SDS011;38120;53.176;6.614;2022-09-02T05:01:14;3.67;;;2.40;;
52126;SDS011;38120;53.176;6.614;2022-09-02T05:03:43;3.67;;;2.40;;
52126;SDS011;38120;53.176;6.614;2022-09-02T05:06:11;4.00;;;2.45;;
52126;SDS011;38120;53.176;6.614;2022-09-02T05:08:38;5.05;;;2.30;;
52126;SDS011;38120;53.176;6.614;2022-09-02T05:11:09;3.95;;;2.58;;
52126;SDS011;38120;53.176;6.614;2022-09-02T05:13:42;3.70;;;2.22;;
52126;SDS011;38120;53.176;6.614;2022-09-02T05:16:07;4.85;;;2.40;;
52126;SDS011;38120;53.176;6.614;2022-09-02T05:18:33;6.70;;;2.70;;
52126;SDS011;38120;53.176;6.614;2022-09-02T05:20:59;3.10;;;2.00;;
52126;SDS011;38120;53.176;6.614;2022-09-02T05:23:30;4.18;;;2.38;;
52126;SDS011;38120;53.176;6.614;2022-09-02T05:25:56;5.17;;;2.70;;
52126;SDS011;38120;53.176;6.614;2022-09-02T05:28:21;5.80;;;2.97;;
52126;SDS011;38120;53.176;6.614;2022-09-02T05:30:47;4.30;;;2.37;;
52126;SDS011;38120;53.176;6.614;2022-09-02T05:33:12;4.30;;;2.50;;
52126;SDS011;38120;53.176;6.614;2022-09-02T05:35:42;3.60;;;2.30;;
52126;SDS011;38120;53.176;6.614;2022-09-02T05:38:08;4.97;;;2.15;;
52126;SDS011;38120;53.176;6.614;2022-09-02T05:40:37;3.72;;;2.22;;
52126;SDS011;38120;53.176;6.614;2022-09-02T05:43:03;6.38;;;2.75;;
52126;SDS011;38120;53.176;6.614;2022-09-02T05:45:29;7.10;;;2.55;;
52126;SDS011;38120;53.176;6.614;2022-09-02T05:47:55;3.93;;;2.47;;
52126;SDS011;38120;53.176;6.614;2022-09-02T05:50:21;6.07;;;2.77;;
52126;SDS011;38120;53.176;6.614;2022-09-02T05:52:49;3.65;;;2.20;;
52126;SDS011;38120;53.176;6.614;2022-09-02T05:55:15;4.30;;;2.17;;
52126;SDS011;38120;53.176;6.614;2022-09-02T05:57:41;4.07;;;2.28;;
52126;SDS011;38120;53.176;6.614;2022-09-02T06:00:09;9.63;;;2.70;;
52126;SDS011;38120;53.176;6.614;2022-09-02T06:05:00;5.18;;;2.47;;
52126;SDS011;38120;53.176;6.614;2022-09-02T06:07:26;6.22;;;2.60;;
52126;SDS011;38120;53.176;6.614;2022-09-02T06:09:52;5.05;;;2.60;;
52126;SDS011;38120;53.176;6.614;2022-09-02T06:12:19;6.47;;;3.00;;
52126;SDS011;38120;53.176;6.614;2022-09-02T06:14:46;5.32;;;2.42;;
52126;SDS011;38120;53.176;6.614;2022-09-02T06:17:12;4.10;;;2.22;;
52126;SDS011;38120;53.176;6.614;2022-09-02T06:19:38;10.88;;;2.90;;
52126;SDS011;38120;53.176;6.614;2022-09-02T06:22:04;5.88;;;2.83;;
52126;SDS011;38120;53.176;6.614;2022-09-02T06:24:30;6.70;;;3.20;;
52126;SDS011;38120;53.176;6.614;2022-09-02T06:26:56;5.57;;;2.58;;
52126;SDS011;38120;53.176;6.614;2022-09-02T06:29:23;5.32;;;3.25;;
52126;SDS011;38120;53.176;6.614;2022-09-02T06:31:50;5.35;;;2.63;;
52126;SDS011;38120;53.176;6.614;2022-09-02T06:34:17;4.30;;;2.95;;
52126;SDS011;38120;53.176;6.614;2022-09-02T06:36:45;5.63;;;2.45;;
52126;SDS011;38120;53.176;6.614;2022-09-02T06:39:13;5.07;;;2.90;;
52126;SDS011;38120;53.176;6.614;2022-09-02T06:41:41;6.03;;;3.13;;
52126;SDS011;38120;53.176;6.614;2022-09-02T06:44:09;6.05;;;3.08;;
52126;SDS011;38120;53.176;6.614;2022-09-02T06:46:37;4.53;;;3.05;;
52126;SDS011;38120;53.176;6.614;2022-09-02T06:49:05;4.13;;;2.67;;
52126;SDS011;38120;53.176;6.614;2022-09-02T06:51:33;5.35;;;2.75;;
52126;SDS011;38120;53.176;6.614;2022-09-02T06:54:04;7.63;;;2.70;;
52126;SDS011;38120;53.176;6.614;2022-09-02T06:56:31;5.95;;;2.90;;
52126;SDS011;38120;53.176;6.614;2022-09-02T06:58:58;4.50;;;2.55;;
52126;SDS011;38120;53.176;6.614;2022-09-02T07:01:25;8.77;;;2.85;;
52126;SDS011;38120;53.176;6.614;2022-09-02T07:03:52;6.75;;;3.08;;
52126;SDS011;38120;53.176;6.614;2022-09-02T07:06:38;4.65;;;2.55;;
52126;SDS011;38120;53.176;6.614;2022-09-02T07:09:07;5.35;;;2.75;;
52126;SDS011;38120;53.176;6.614;2022-09-02T07:11:34;5.10;;;2.53;;
52126;SDS011;38120;53.176;6.614;2022-09-02T07:14:01;4.75;;;2.58;;
52126;SDS011;38120;53.176;6.614;2022-09-02T07:16:28;7.63;;;3.03;;
52126;SDS011;38120;53.176;6.614;2022-09-02T07:18:57;6.80;;;2.80;;
52126;SDS011;38120;53.176;6.614;2022-09-02T07:21:25;4.40;;;2.47;;
52126;SDS011;38120;53.176;6.614;2022-09-02T07:23:53;3.90;;;2.50;;
52126;SDS011;38120;53.176;6.614;2022-09-02T07:26:20;4.82;;;2.55;;
52126;SDS011;38120;53.176;6.614;2022-09-02T07:28:46;8.27;;;3.08;;
52126;SDS011;38120;53.176;6.614;2022-09-02T07:31:13;7.15;;;2.47;;
52126;SDS011;38120;53.176;6.614;2022-09-02T07:33:40;7.15;;;3.00;;
52126;SDS011;38120;53.176;6.614;2022-09-02T07:36:07;4.63;;;2.65;;
52126;SDS011;38120;53.176;6.614;2022-09-02T07:38:34;5.82;;;2.53;;
52126;SDS011;38120;53.176;6.614;2022-09-02T07:41:00;4.60;;;2.45;;
52126;SDS011;38120;53.176;6.614;2022-09-02T07:43:27;3.22;;;2.15;;
52126;SDS011;38120;53.176;6.614;2022-09-02T07:45:54;4.00;;;2.13;;
52126;SDS011;38120;53.176;6.614;2022-09-02T07:48:21;3.97;;;2.10;;
52126;SDS011;38120;53.176;6.614;2022-09-02T07:50:48;6.60;;;2.00;;
52126;SDS011;38120;53.176;6.614;2022-09-02T07:55:41;5.72;;;2.25;;
52126;SDS011;38120;53.176;6.614;2022-09-02T07:58:08;6.60;;;1.77;;
52126;SDS011;38120;53.176;6.614;2022-09-02T08:00:34;5.07;;;2.00;;
52126;SDS011;38120;53.176;6.614;2022-09-02T08:03:00;7.07;;;2.63;;
52126;SDS011;38120;53.176;6.614;2022-09-02T08:05:26;3.55;;;1.60;;
52126;SDS011;38120;53.176;6.614;2022-09-02T08:07:53;5.63;;;2.05;;
52126;SDS011;38120;53.176;6.614;2022-09-02T08:10:19;5.13;;;2.13;;
52126;SDS011;38120;53.176;6.614;2022-09-02T08:12:45;6.68;;;1.58;;
52126;SDS011;38120;53.176;6.614;2022-09-02T08:15:11;2.85;;;1.70;;
52126;SDS011;38120;53.176;6.614;2022-09-02T08:17:38;5.20;;;2.05;;
52126;SDS011;38120;53.176;6.614;2022-09-02T08:20:09;3.60;;;1.90;;
52126;SDS011;38120;53.176;6.614;2022-09-02T08:22:36;3.60;;;1.88;;
52126;SDS011;38120;53.176;6.614;2022-09-02T08:25:03;4.93;;;1.95;;
52126;SDS011;38120;53.176;6.614;2022-09-02T08:27:29;6.28;;;2.15;;
52126;SDS011;38120;53.176;6.614;2022-09-02T08:29:56;2.72;;;1.60;;
52126;SDS011;38120;53.176;6.614;2022-09-02T08:32:23;7.15;;;2.45;;
52126;SDS011;38120;53.176;6.614;2022-09-02T08:34:49;3.53;;;2.10;;
52126;SDS011;38120;53.176;6.614;2022-09-02T08:37:15;3.03;;;1.70;;
52126;SDS011;38120;53.176;6.614;2022-09-02T08:39:43;4.70;;;2.10;;
52126;SDS011;38120;53.176;6.614;2022-09-02T08:44:46;5.40;;;2.47;;
52126;SDS011;38120;53.176;6.614;2022-09-02T08:47:17;5.25;;;1.80;;
52126;SDS011;38120;53.176;6.614;2022-09-02T08:49:54;4.88;;;2.15;;
52126;SDS011;38120;53.176;6.614;2022-09-02T08:55:03;5.20;;;1.90;;
52126;SDS011;38120;53.176;6.614;2022-09-02T08:57:31;7.70;;;2.35;;
52126;SDS011;38120;53.176;6.614;2022-09-02T08:59:59;5.97;;;2.55;;
52126;SDS011;38120;53.176;6.614;2022-09-02T09:02:32;4.53;;;2.17;;
52126;SDS011;38120;53.176;6.614;2022-09-02T09:07:51;4.38;;;1.88;;
52126;SDS011;38120;53.176;6.614;2022-09-02T09:10:24;3.60;;;1.95;;
52126;SDS011;38120;53.176;6.614;2022-09-02T09:15:49;4.30;;;1.75;;
52126;SDS011;38120;53.176;6.614;2022-09-02T09:18:18;4.63;;;1.67;;
52126;SDS011;38120;53.176;6.614;2022-09-02T09:20:53;5.50;;;2.00;;
52126;SDS011;38120;53.176;6.614;2022-09-02T09:26:16;5.50;;;1.98;;
52126;SDS011;38120;53.176;6.614;2022-09-02T09:28:47;5.63;;;2.03;;
52126;SDS011;38120;53.176;6.614;2022-09-02T09:31:16;8.50;;;1.92;;
52126;SDS011;38120;53.176;6.614;2022-09-02T09:36:52;5.40;;;1.90;;
52126;SDS011;38120;53.176;6.614;2022-09-02T09:41:44;9.10;;;1.77;;
52126;SDS011;38120;53.176;6.614;2022-09-02T09:44:26;3.53;;;1.50;;
52126;SDS011;38120;53.176;6.614;2022-09-02T09:47:00;9.25;;;1.65;;
52126;SDS011;38120;53.176;6.614;2022-09-02T09:49:26;2.45;;;1.33;;
52126;SDS011;38120;53.176;6.614;2022-09-02T09:51:56;7.57;;;1.48;;
52126;SDS011;38120;53.176;6.614;2022-09-02T09:54:24;6.28;;;1.60;;
52126;SDS011;38120;53.176;6.614;2022-09-02T09:56:51;3.03;;;1.58;;
52126;SDS011;38120;53.176;6.614;2022-09-02T09:59:38;7.65;;;2.22;;
52126;SDS011;38120;53.176;6.614;2022-09-02T10:02:15;4.78;;;1.58;;
52126;SDS011;38120;53.176;6.614;2022-09-02T10:04:45;5.35;;;1.55;;
52126;SDS011;38120;53.176;6.614;2022-09-02T10:07:11;3.53;;;1.27;;
52126;SDS011;38120;53.176;6.614;2022-09-02T10:09:40;7.60;;;1.65;;
52126;SDS011;38120;53.176;6.614;2022-09-02T10:12:12;6.35;;;1.80;;
52126;SDS011;38120;53.176;6.614;2022-09-02T10:14:44;5.68;;;1.83;;
52126;SDS011;38120;53.176;6.614;2022-09-02T10:19:46;5.88;;;2.05;;
52126;SDS011;38120;53.176;6.614;2022-09-02T10:22:34;5.50;;;1.75;;
52126;SDS011;38120;53.176;6.614;2022-09-02T10:30:42;7.28;;;3.72;;
52126;SDS011;38120;53.176;6.614;2022-09-02T10:33:41;5.90;;;1.70;;
52126;SDS011;38120;53.176;6.614;2022-09-02T10:36:11;4.07;;;1.70;;
52126;SDS011;38120;53.176;6.614;2022-09-02T10:38:45;4.85;;;2.00;;
52126;SDS011;38120;53.176;6.614;2022-09-02T10:46:43;3.40;;;1.42;;
52126;SDS011;38120;53.176;6.614;2022-09-02T10:52:50;4.80;;;1.45;;
52126;SDS011;38120;53.176;6.614;2022-09-02T11:01:19;4.70;;;1.50;;
52126;SDS011;38120;53.176;6.614;2022-09-02T11:04:07;4.97;;;1.15;;
52126;SDS011;38120;53.176;6.614;2022-09-02T11:06:41;7.35;;;1.92;;
52126;SDS011;38120;53.176;6.614;2022-09-02T11:09:19;6.97;;;1.67;;
52126;SDS011;38120;53.176;6.614;2022-09-02T11:17:43;5.88;;;3.97;;
52126;SDS011;38120;53.176;6.614;2022-09-02T11:20:25;5.72;;;1.30;;
52126;SDS011;38120;53.176;6.614;2022-09-02T11:25:38;4.80;;;1.70;;
52126;SDS011;38120;53.176;6.614;2022-09-02T11:28:23;3.30;;;1.65;;
52126;SDS011;38120;53.176;6.614;2022-09-02T11:31:02;3.35;;;1.02;;
52126;SDS011;38120;53.176;6.614;2022-09-02T11:36:15;6.57;;;1.35;;
52126;SDS011;38120;53.176;6.614;2022-09-02T11:38:43;6.30;;;1.42;;
52126;SDS011;38120;53.176;6.614;2022-09-02T11:41:37;3.88;;;1.52;;
52126;SDS011;38120;53.176;6.614;2022-09-02T11:52:43;6.78;;;1.58;;
52126;SDS011;38120;53.176;6.614;2022-09-02T11:55:32;8.18;;;1.95;;
52126;SDS011;38120;53.176;6.614;2022-09-02T11:57:58;3.08;;;1.30;;
52126;SDS011;38120;53.176;6.614;2022-09-02T12:02:58;3.83;;;0.95;;
52126;SDS011;38120;53.176;6.614;2022-09-02T12:13:50;5.80;;;1.60;;
52126;SDS011;38120;53.176;6.614;2022-09-02T12:18:42;5.95;;;1.40;;
52126;SDS011;38120;53.176;6.614;2022-09-02T12:21:13;3.67;;;1.10;;
52126;SDS011;38120;53.176;6.614;2022-09-02T12:31:46;4.05;;;1.38;;
52126;SDS011;38120;53.176;6.614;2022-09-02T12:36:53;3.00;;;1.00;;
52126;SDS011;38120;53.176;6.614;2022-09-02T12:55:22;4.60;;;1.10;;
52126;SDS011;38120;53.176;6.614;2022-09-02T12:57:46;4.07;;;1.30;;
52126;SDS011;38120;53.176;6.614;2022-09-02T13:06:23;4.00;;;1.15;;
52126;SDS011;38120;53.176;6.614;2022-09-02T13:20:08;4.45;;;1.17;;
52126;SDS011;38120;53.176;6.614;2022-09-02T13:33:36;2.30;;;0.80;;
52126;SDS011;38120;53.176;6.614;2022-09-02T13:38:28;3.85;;;1.02;;
52126;SDS011;38120;53.176;6.614;2022-09-02T13:40:56;4.22;;;1.50;;
52126;SDS011;38120;53.176;6.614;2022-09-02T13:43:23;3.83;;;1.35;;
52126;SDS011;38120;53.176;6.614;2022-09-02T13:45:51;2.28;;;0.90;;
52126;SDS011;38120;53.176;6.614;2022-09-02T13:48:24;5.43;;;1.58;;
52126;SDS011;38120;53.176;6.614;2022-09-02T13:50:52;2.92;;;1.25;;
52126;SDS011;38120;53.176;6.614;2022-09-02T13:53:34;2.92;;;0.95;;
52126;SDS011;38120;53.176;6.614;2022-09-02T13:56:11;2.63;;;1.00;;
52126;SDS011;38120;53.176;6.614;2022-09-02T13:58:40;4.95;;;1.20;;
52126;SDS011;38120;53.176;6.614;2022-09-02T14:03:49;2.95;;;1.20;;
52126;SDS011;38120;53.176;6.614;2022-09-02T14:06:23;3.28;;;0.77;;
52126;SDS011;38120;53.176;6.614;2022-09-02T14:11:20;8.85;;;1.38;;
52126;SDS011;38120;53.176;6.614;2022-09-02T14:13:47;3.53;;;1.30;;
52126;SDS011;38120;53.176;6.614;2022-09-02T14:16:24;2.83;;;1.27;;
52126;SDS011;38120;53.176;6.614;2022-09-02T14:21:33;6.50;;;1.23;;
52126;SDS011;38120;53.176;6.614;2022-09-02T14:24:00;4.50;;;1.33;;
52126;SDS011;38120;53.176;6.614;2022-09-02T14:26:32;8.05;;;1.52;;
52126;SDS011;38120;53.176;6.614;2022-09-02T14:29:03;3.40;;;1.20;;
52126;SDS011;38120;53.176;6.614;2022-09-02T14:31:30;4.22;;;1.02;;
52126;SDS011;38120;53.176;6.614;2022-09-02T14:33:58;3.38;;;1.10;;
52126;SDS011;38120;53.176;6.614;2022-09-02T14:36:35;2.70;;;1.13;;
52126;SDS011;38120;53.176;6.614;2022-09-02T14:39:10;5.03;;;1.33;;
52126;SDS011;38120;53.176;6.614;2022-09-02T14:41:42;4.85;;;1.20;;
52126;SDS011;38120;53.176;6.614;2022-09-02T14:44:29;2.70;;;1.25;;
52126;SDS011;38120;53.176;6.614;2022-09-02T14:47:02;3.30;;;1.10;;
52126;SDS011;38120;53.176;6.614;2022-09-02T14:52:24;1.85;;;0.90;;
52126;SDS011;38120;53.176;6.614;2022-09-02T14:54:52;3.00;;;1.05;;
52126;SDS011;38120;53.176;6.614;2022-09-02T14:57:24;4.43;;;1.30;;
52126;SDS011;38120;53.176;6.614;2022-09-02T14:59:53;6.95;;;1.30;;
52126;SDS011;38120;53.176;6.614;2022-09-02T15:02:28;3.97;;;1.58;;
52126;SDS011;38120;53.176;6.614;2022-09-02T15:04:59;2.33;;;1.27;;
52126;SDS011;38120;53.176;6.614;2022-09-02T15:07:30;4.00;;;1.67;;
52126;SDS011;38120;53.176;6.614;2022-09-02T15:12:23;3.92;;;1.50;;
52126;SDS011;38120;53.176;6.614;2022-09-02T15:14:55;3.47;;;1.00;;
52126;SDS011;38120;53.176;6.614;2022-09-02T15:17:21;4.38;;;1.23;;
52126;SDS011;38120;53.176;6.614;2022-09-02T15:22:13;3.22;;;1.40;;
52126;SDS011;38120;53.176;6.614;2022-09-02T15:24:39;3.70;;;1.10;;
52126;SDS011;38120;53.176;6.614;2022-09-02T15:27:07;5.82;;;1.50;;
52126;SDS011;38120;53.176;6.614;2022-09-02T15:29:36;4.70;;;1.58;;
52126;SDS011;38120;53.176;6.614;2022-09-02T15:32:03;3.22;;;1.30;;
52126;SDS011;38120;53.176;6.614;2022-09-02T15:34:29;8.02;;;1.23;;
52126;SDS011;38120;53.176;6.614;2022-09-02T15:36:55;8.80;;;1.75;;
52126;SDS011;38120;53.176;6.614;2022-09-02T15:39:25;6.82;;;1.42;;
52126;SDS011;38120;53.176;6.614;2022-09-02T15:41:51;8.40;;;1.35;;
52126;SDS011;38120;53.176;6.614;2022-09-02T15:44:19;3.70;;;1.10;;
52126;SDS011;38120;53.176;6.614;2022-09-02T15:46:49;5.07;;;1.50;;
52126;SDS011;38120;53.176;6.614;2022-09-02T15:49:16;6.45;;;1.30;;
52126;SDS011;38120;53.176;6.614;2022-09-02T15:51:43;9.80;;;2.17;;
52126;SDS011;38120;53.176;6.614;2022-09-02T15:54:11;2.55;;;1.20;;
52126;SDS011;38120;53.176;6.614;2022-09-02T15:56:40;3.80;;;1.60;;
52126;SDS011;38120;53.176;6.614;2022-09-02T15:59:10;6.50;;;1.70;;
52126;SDS011;38120;53.176;6.614;2022-09-02T16:01:41;7.07;;;1.25;;
52126;SDS011;38120;53.176;6.614;2022-09-02T16:04:09;6.15;;;1.25;;
52126;SDS011;38120;53.176;6.614;2022-09-02T16:06:37;5.32;;;1.52;;
52126;SDS011;38120;53.176;6.614;2022-09-02T16:09:08;2.95;;;1.40;;
52126;SDS011;38120;53.176;6.614;2022-09-02T16:11:36;6.07;;;1.40;;
52126;SDS011;38120;53.176;6.614;2022-09-02T16:14:03;5.00;;;1.60;;
52126;SDS011;38120;53.176;6.614;2022-09-02T16:18:55;4.50;;;1.55;;
52126;SDS011;38120;53.176;6.614;2022-09-02T16:23:46;6.00;;;1.42;;
52126;SDS011;38120;53.176;6.614;2022-09-02T16:26:14;3.65;;;2.00;;
52126;SDS011;38120;53.176;6.614;2022-09-02T16:28:52;5.65;;;1.42;;
52126;SDS011;38120;53.176;6.614;2022-09-02T16:31:22;4.65;;;1.70;;
52126;SDS011;38120;53.176;6.614;2022-09-02T16:33:54;4.10;;;1.75;;
52126;SDS011;38120;53.176;6.614;2022-09-02T16:36:28;11.95;;;4.57;;
52126;SDS011;38120;53.176;6.614;2022-09-02T16:38:55;10.40;;;4.18;;
52126;SDS011;38120;53.176;6.614;2022-09-02T16:43:56;8.23;;;2.47;;
52126;SDS011;38120;53.176;6.614;2022-09-02T16:46:23;5.75;;;1.90;;
52126;SDS011;38120;53.176;6.614;2022-09-02T16:48:49;5.38;;;2.35;;
52126;SDS011;38120;53.176;6.614;2022-09-02T16:51:15;3.65;;;2.15;;
52126;SDS011;38120;53.176;6.614;2022-09-02T16:53:41;7.72;;;3.85;;
52126;SDS011;38120;53.176;6.614;2022-09-02T16:56:14;7.45;;;4.47;;
52126;SDS011;38120;53.176;6.614;2022-09-02T16:58:41;12.75;;;2.78;;
52126;SDS011;38120;53.176;6.614;2022-09-02T17:01:08;6.70;;;1.98;;
52126;SDS011;38120;53.176;6.614;2022-09-02T17:03:36;3.13;;;1.58;;
52126;SDS011;38120;53.176;6.614;2022-09-02T17:08:27;6.70;;;3.38;;
52126;SDS011;38120;53.176;6.614;2022-09-02T17:14:04;5.68;;;2.40;;
52126;SDS011;38120;53.176;6.614;2022-09-02T17:16:37;6.10;;;2.10;;
52126;SDS011;38120;53.176;6.614;2022-09-02T17:19:05;4.22;;;1.70;;
52126;SDS011;38120;53.176;6.614;2022-09-02T17:24:11;6.35;;;2.38;;
52126;SDS011;38120;53.176;6.614;2022-09-02T17:26:38;5.75;;;2.00;;
52126;SDS011;38120;53.176;6.614;2022-09-02T17:29:06;3.72;;;1.80;;
52126;SDS011;38120;53.176;6.614;2022-09-02T17:31:36;5.93;;;1.50;;
52126;SDS011;38120;53.176;6.614;2022-09-02T17:34:03;3.42;;;1.23;;
52126;SDS011;38120;53.176;6.614;2022-09-02T17:36:32;5.03;;;2.30;;
52126;SDS011;38120;53.176;6.614;2022-09-02T17:39:06;6.30;;;1.98;;
52126;SDS011;38120;53.176;6.614;2022-09-02T17:41:37;6.05;;;1.90;;
52126;SDS011;38120;53.176;6.614;2022-09-02T17:44:18;4.65;;;1.20;;
52126;SDS011;38120;53.176;6.614;2022-09-02T17:46:46;9.32;;;1.73;;
52126;SDS011;38120;53.176;6.614;2022-09-02T17:49:12;3.92;;;1.10;;
52126;SDS011;38120;53.176;6.614;2022-09-02T17:51:38;3.42;;;1.20;;
52126;SDS011;38120;53.176;6.614;2022-09-02T17:54:05;4.40;;;1.65;;
52126;SDS011;38120;53.176;6.614;2022-09-02T17:59:35;8.13;;;3.53;;
52126;SDS011;38120;53.176;6.614;2022-09-02T18:05:05;3.88;;;1.20;;
52126;SDS011;38120;53.176;6.614;2022-09-02T18:07:41;5.47;;;1.77;;
52126;SDS011;38120;53.176;6.614;2022-09-02T18:10:29;2.90;;;1.60;;
52126;SDS011;38120;53.176;6.614;2022-09-02T18:13:04;8.38;;;1.60;;